Time;durP1;ratioP1;P1;durP2;ratioP2;P2;SDS_P1;SDS_P2;PMS_P1;PMS_P2;Temp;Humidity;BMP_temperature;BMP_pressure;BME280_temperature;BME280_humidity;BME280_pressure;Samples;Min_cycle;Max_cycle;Signal;HPM_P1;HPM_P2
2021/10/10 00:00:18;;;;;;;41.20;33.58;;;;;;;;;;694294;28;928;-63
2021/10/10 00:00:38;;;;;;;42.23;33.77;;;;;;;;;;694122;28;883;-63
2021/10/10 00:00:58;;;;;;;40.50;33.53;;;;;;;;;;693895;28;801;-63
2021/10/10 00:01:18;;;;;;;43.03;34.07;;;;;;;;;;693780;28;1017;-61
2021/10/10 00:01:39;;;;;;;42.53;34.40;;;;;;;;;;693553;28;833;-62
2021/10/10 00:01:59;;;;;;;44.00;34.63;;;;;;;;;;693570;28;1069;-62
2021/10/10 00:02:19;;;;;;;44.40;34.57;;;;;;;;;;693569;28;840;-62
2021/10/10 00:02:39;;;;;;;41.20;33.33;;;;;;;;;;693455;28;873;-62
2021/10/10 00:02:59;;;;;;;41.63;33.80;;;;;;;;;;693364;28;892;-62
2021/10/10 00:03:19;;;;;;;42.65;33.60;;;;;;;;;;693588;28;813;-62
2021/10/10 00:03:40;;;;;;;41.57;33.23;;;;;;;;;;693766;28;829;-62
2021/10/10 00:04:00;;;;;;;42.00;32.97;;;;;;;;;;693732;28;848;-62
2021/10/10 00:04:20;;;;;;;42.53;33.40;;;;;;;;;;693881;28;833;-62
2021/10/10 00:04:40;;;;;;;43.13;33.87;;;;;;;;;;693862;28;852;-62
2021/10/10 00:05:00;;;;;;;44.20;34.40;;;;;;;;;;693779;28;809;-63
2021/10/10 00:05:20;;;;;;;42.47;34.40;;;;;;;;;;693791;28;979;-63
2021/10/10 00:05:41;;;;;;;41.50;33.97;;;;;;;;;;693691;28;868;-63
2021/10/10 00:06:01;;;;;;;43.03;33.20;;;;;;;;;;693790;28;889;-63
2021/10/10 00:06:21;;;;;;;41.05;33.70;;;;;;;;;;693888;28;969;-63
2021/10/10 00:06:41;;;;;;;42.97;34.80;;;;;;;;;;693704;28;818;-63
2021/10/10 00:07:01;;;;;;;41.67;33.13;;;;;;;;;;693841;28;1021;-63
2021/10/10 00:07:21;;;;;;;41.57;32.53;;;;;;;;;;693826;28;805;-63
2021/10/10 00:07:42;;;;;;;41.37;33.07;;;;;;;;;;693641;28;990;-63
2021/10/10 00:08:02;;;;;;;41.75;33.88;;;;;;;;;;693699;28;943;-63
2021/10/10 00:08:22;;;;;;;41.87;33.70;;;;;;;;;;693613;28;1295;-63
2021/10/10 00:08:42;;;;;;;41.90;33.27;;;;;;;;;;693782;28;992;-63
2021/10/10 00:09:03;;;;;;;42.57;32.87;;;;;;;;;;693803;28;983;-63
2021/10/10 00:09:23;;;;;;;42.47;33.35;;;;;;;;;;693646;28;1242;-62
2021/10/10 00:09:46;;;;;;;41.23;33.10;;;;;;;;;;693737;28;883;-63
2021/10/10 00:10:10;;;;;;;41.95;33.35;;;;;;;;;;693750;28;1153;-63
2021/10/10 00:10:31;;;;;;;43.63;33.78;;;;;;;;;;693825;28;826;-63
2021/10/10 00:10:52;;;;;;;43.45;34.22;;;;;;;;;;693852;28;988;-63
2021/10/10 00:11:12;;;;;;;43.53;34.13;;;;;;;;;;693729;28;967;-63
2021/10/10 00:11:32;;;;;;;42.97;33.60;;;;;;;;;;693765;28;1911;-63
2021/10/10 00:11:52;;;;;;;43.20;34.37;;;;;;;;;;693730;28;809;-63
2021/10/10 00:12:12;;;;;;;44.13;34.33;;;;;;;;;;693716;28;796;-63
2021/10/10 00:12:33;;;;;;;45.20;34.87;;;;;;;;;;693854;28;963;-63
2021/10/10 00:12:55;;;;;;;44.10;33.58;;;;;;;;;;692910;28;849;-63
2021/10/10 00:13:16;;;;;;;44.13;34.47;;;;;;;;;;693570;28;1056;-63
2021/10/10 00:13:36;;;;;;;42.03;33.95;;;;;;;;;;693591;28;864;-63
2021/10/10 00:13:56;;;;;;;41.33;33.97;;;;;;;;;;693413;28;813;-63
2021/10/10 00:14:19;;;;;;;42.97;34.00;;;;;;;;;;693507;28;969;-63
2021/10/10 00:14:39;;;;;;;42.00;33.30;;;;;;;;;;693693;28;854;-63
2021/10/10 00:15:00;;;;;;;43.03;33.83;;;;;;;;;;693708;28;903;-63
2021/10/10 00:15:23;;;;;;;41.25;33.83;;;;;;;;;;693801;28;923;-63
2021/10/10 00:15:43;;;;;;;41.70;34.15;;;;;;;;;;693603;28;868;-63
2021/10/10 00:16:04;;;;;;;42.60;34.40;;;;;;;;;;693688;28;816;-63
2021/10/10 00:16:24;;;;;;;44.43;35.07;;;;;;;;;;693703;28;1352;-63
2021/10/10 00:16:46;;;;;;;43.77;34.03;;;;;;;;;;693748;28;800;-63
2021/10/10 00:17:07;;;;;;;44.58;35.05;;;;;;;;;;693786;28;856;-63
2021/10/10 00:17:27;;;;;;;44.47;35.40;;;;;;;;;;693748;28;868;-63
2021/10/10 00:17:47;;;;;;;44.87;36.37;;;;;;;;;;693657;28;959;-63
2021/10/10 00:18:07;;;;;;;45.43;36.17;;;;;;;;;;693707;28;852;-63
2021/10/10 00:18:28;;;;;;;46.93;35.97;;;;;;;;;;693718;28;849;-63
2021/10/10 00:18:48;;;;;;;44.77;35.13;;;;;;;;;;693863;28;824;-62
2021/10/10 00:19:08;;;;;;;44.30;35.20;;;;;;;;;;693788;28;995;-62
2021/10/10 00:19:28;;;;;;;46.70;35.60;;;;;;;;;;693390;28;1260;-62
2021/10/10 00:19:49;;;;;;;45.83;34.97;;;;;;;;;;693562;28;904;-62
2021/10/10 00:20:09;;;;;;;44.70;35.33;;;;;;;;;;693418;28;1178;-62
2021/10/10 00:20:29;;;;;;;45.57;35.00;;;;;;;;;;693376;28;900;-62
2021/10/10 00:20:49;;;;;;;44.70;35.40;;;;;;;;;;693650;28;805;-63
2021/10/10 00:21:10;;;;;;;44.33;35.90;;;;;;;;;;693444;28;967;-63
2021/10/10 00:21:30;;;;;;;46.22;35.90;;;;;;;;;;693734;28;877;-63
2021/10/10 00:21:51;;;;;;;47.33;36.17;;;;;;;;;;693767;28;983;-62
2021/10/10 00:22:11;;;;;;;47.70;36.17;;;;;;;;;;693687;28;907;-62
2021/10/10 00:22:31;;;;;;;49.13;36.73;;;;;;;;;;693765;28;813;-63
2021/10/10 00:22:51;;;;;;;48.77;36.70;;;;;;;;;;693230;28;984;-63
2021/10/10 00:23:11;;;;;;;47.70;36.63;;;;;;;;;;693820;28;915;-63
2021/10/10 00:23:31;;;;;;;48.27;36.80;;;;;;;;;;693828;28;860;-62
2021/10/10 00:23:54;;;;;;;49.77;37.23;;;;;;;;;;693282;28;1252;-63
2021/10/10 00:24:14;;;;;;;49.80;36.78;;;;;;;;;;693678;28;958;-62
2021/10/10 00:24:35;;;;;;;47.07;36.77;;;;;;;;;;693529;28;892;-63
2021/10/10 00:24:55;;;;;;;46.80;36.90;;;;;;;;;;693482;28;856;-63
2021/10/10 00:25:15;;;;;;;48.30;36.92;;;;;;;;;;693585;28;991;-63
2021/10/10 00:25:38;;;;;;;48.70;37.23;;;;;;;;;;693506;28;870;-63
2021/10/10 00:25:58;;;;;;;47.13;36.17;;;;;;;;;;693546;28;975;-63
2021/10/10 00:26:18;;;;;;;47.17;36.93;;;;;;;;;;693518;28;868;-62
2021/10/10 00:26:38;;;;;;;48.83;37.73;;;;;;;;;;693561;28;1269;-63
2021/10/10 00:26:58;;;;;;;50.23;37.53;;;;;;;;;;693833;28;992;-63
2021/10/10 00:27:19;;;;;;;48.70;37.22;;;;;;;;;;693870;28;868;-63
2021/10/10 00:27:39;;;;;;;46.50;36.23;;;;;;;;;;693672;28;848;-63
2021/10/10 00:28:00;;;;;;;47.93;37.77;;;;;;;;;;693693;28;999;-63
2021/10/10 00:28:20;;;;;;;46.93;37.07;;;;;;;;;;693666;28;818;-63
2021/10/10 00:28:40;;;;;;;49.37;37.17;;;;;;;;;;693749;28;789;-63
2021/10/10 00:29:00;;;;;;;47.80;37.70;;;;;;;;;;693801;28;996;-63
2021/10/10 00:29:20;;;;;;;46.92;37.85;;;;;;;;;;693661;28;805;-63
2021/10/10 00:29:41;;;;;;;46.60;37.07;;;;;;;;;;693645;28;1388;-63
2021/10/10 00:30:03;;;;;;;45.57;36.57;;;;;;;;;;693710;28;882;-63
2021/10/10 00:30:24;;;;;;;45.00;36.70;;;;;;;;;;693623;28;852;-63
2021/10/10 00:30:44;;;;;;;47.28;37.33;;;;;;;;;;693522;28;880;-63
2021/10/10 00:31:05;;;;;;;47.93;36.70;;;;;;;;;;693480;28;856;-63
2021/10/10 00:31:25;;;;;;;47.23;36.30;;;;;;;;;;693500;28;1019;-63
2021/10/10 00:31:45;;;;;;;47.58;36.15;;;;;;;;;;693517;28;1914;-63
2021/10/10 00:32:09;;;;;;;47.33;36.53;;;;;;;;;;693401;28;1004;-62
2021/10/10 00:32:32;;;;;;;47.17;36.40;;;;;;;;;;693565;28;888;-63
2021/10/10 00:32:52;;;;;;;46.53;36.70;;;;;;;;;;693125;28;1090;-63
2021/10/10 00:33:12;;;;;;;46.10;36.30;;;;;;;;;;693779;28;916;-63
2021/10/10 00:33:32;;;;;;;48.40;37.13;;;;;;;;;;693817;28;852;-62
2021/10/10 00:33:52;;;;;;;46.50;36.57;;;;;;;;;;693711;28;943;-62
2021/10/10 00:34:12;;;;;;;45.53;36.70;;;;;;;;;;693701;28;797;-63
2021/10/10 00:34:33;;;;;;;46.20;36.57;;;;;;;;;;693699;28;971;-63
2021/10/10 00:34:53;;;;;;;45.73;36.03;;;;;;;;;;693648;28;959;-63
2021/10/10 00:35:14;;;;;;;47.33;37.07;;;;;;;;;;693773;28;926;-63
2021/10/10 00:35:34;;;;;;;48.10;37.22;;;;;;;;;;693702;28;861;-63
2021/10/10 00:35:55;;;;;;;46.70;37.10;;;;;;;;;;693545;28;1396;-63
2021/10/10 00:36:15;;;;;;;45.80;36.30;;;;;;;;;;693665;28;888;-63
2021/10/10 00:36:35;;;;;;;44.83;35.87;;;;;;;;;;693673;28;856;-63
2021/10/10 00:36:55;;;;;;;45.75;35.88;;;;;;;;;;693705;28;1045;-63
2021/10/10 00:37:15;;;;;;;46.00;35.63;;;;;;;;;;693793;28;916;-63
2021/10/10 00:37:35;;;;;;;44.30;35.10;;;;;;;;;;693692;28;844;-63
2021/10/10 00:37:55;;;;;;;43.83;35.47;;;;;;;;;;693740;28;967;-63
2021/10/10 00:38:16;;;;;;;44.83;35.90;;;;;;;;;;693646;28;999;-63
2021/10/10 00:38:37;;;;;;;46.10;35.80;;;;;;;;;;693629;28;809;-63
2021/10/10 00:38:57;;;;;;;44.28;35.85;;;;;;;;;;693754;28;872;-63
2021/10/10 00:39:20;;;;;;;45.40;36.00;;;;;;;;;;693594;28;1273;-63
2021/10/10 00:39:40;;;;;;;45.70;35.67;;;;;;;;;;693742;28;923;-63
2021/10/10 00:40:01;;;;;;;45.85;35.97;;;;;;;;;;693481;28;1454;-62
2021/10/10 00:40:21;;;;;;;47.37;35.93;;;;;;;;;;693700;28;829;-63
2021/10/10 00:40:41;;;;;;;46.80;35.73;;;;;;;;;;693759;28;807;-63
2021/10/10 00:41:01;;;;;;;46.23;35.43;;;;;;;;;;693707;28;825;-63
2021/10/10 00:41:21;;;;;;;44.70;35.10;;;;;;;;;;693644;28;916;-62
2021/10/10 00:41:42;;;;;;;43.57;35.60;;;;;;;;;;693801;28;899;-62
2021/10/10 00:42:02;;;;;;;43.57;34.93;;;;;;;;;;693625;28;852;-63
2021/10/10 00:42:25;;;;;;;43.33;35.00;;;;;;;;;;693752;28;773;-63
2021/10/10 00:42:45;;;;;;;44.84;35.30;;;;;;;;;;693233;28;860;-63
2021/10/10 00:43:05;;;;;;;42.83;34.70;;;;;;;;;;693632;28;783;-63
2021/10/10 00:43:25;;;;;;;43.87;35.10;;;;;;;;;;693422;28;1242;-63
2021/10/10 00:43:45;;;;;;;45.57;35.40;;;;;;;;;;693696;28;880;-62
2021/10/10 00:44:06;;;;;;;44.57;35.40;;;;;;;;;;693649;28;936;-62
2021/10/10 00:44:27;;;;;;;43.88;34.95;;;;;;;;;;693806;28;852;-62
2021/10/10 00:44:50;;;;;;;44.47;35.63;;;;;;;;;;693469;28;1060;-62
2021/10/10 00:45:12;;;;;;;45.28;36.15;;;;;;;;;;693572;28;1313;-62
2021/10/10 00:45:33;;;;;;;45.42;35.85;;;;;;;;;;693552;28;958;-62
2021/10/10 00:45:54;;;;;;;46.42;35.88;;;;;;;;;;693755;28;825;-62
2021/10/10 00:46:14;;;;;;;43.67;35.43;;;;;;;;;;693702;28;832;-62
2021/10/10 00:46:34;;;;;;;45.23;35.67;;;;;;;;;;693616;28;820;-63
2021/10/10 00:46:54;;;;;;;44.27;35.63;;;;;;;;;;693576;28;1223;-62
2021/10/10 00:47:18;;;;;;;41.97;34.15;;;;;;;;;;693733;28;864;-62
2021/10/10 00:47:40;;;;;;;43.95;35.22;;;;;;;;;;693767;28;805;-62
2021/10/10 00:48:01;;;;;;;45.85;35.97;;;;;;;;;;693480;28;959;-62
2021/10/10 00:48:21;;;;;;;46.22;36.80;;;;;;;;;;693272;28;1058;-61
2021/10/10 00:48:41;;;;;;;45.53;37.00;;;;;;;;;;693578;28;950;-62
2021/10/10 00:49:02;;;;;;;44.27;36.20;;;;;;;;;;693518;28;852;-62
2021/10/10 00:49:22;;;;;;;45.15;36.10;;;;;;;;;;693285;28;1370;-62
2021/10/10 00:49:42;;;;;;;45.63;35.60;;;;;;;;;;693615;28;813;-62
2021/10/10 00:50:04;;;;;;;44.27;34.73;;;;;;;;;;693647;28;1014;-62
2021/10/10 00:50:24;;;;;;;44.90;34.90;;;;;;;;;;693734;28;844;-62
2021/10/10 00:50:44;;;;;;;42.97;35.23;;;;;;;;;;693769;28;906;-62
2021/10/10 00:51:04;;;;;;;41.13;35.03;;;;;;;;;;693664;28;971;-61
2021/10/10 00:51:25;;;;;;;41.83;34.63;;;;;;;;;;693730;28;824;-63
2021/10/10 00:51:46;;;;;;;42.72;34.70;;;;;;;;;;693564;28;1975;-62
2021/10/10 00:52:07;;;;;;;44.45;35.67;;;;;;;;;;693570;28;870;-62
2021/10/10 00:52:31;;;;;;;41.92;35.45;;;;;;;;;;693741;28;822;-62
2021/10/10 00:52:52;;;;;;;40.50;34.78;;;;;;;;;;693163;28;931;-62
2021/10/10 00:53:15;;;;;;;41.00;34.30;;;;;;;;;;693673;28;939;-62
2021/10/10 00:53:38;;;;;;;41.85;34.30;;;;;;;;;;693310;28;955;-64
2021/10/10 00:53:59;;;;;;;41.40;34.60;;;;;;;;;;693271;28;901;-62
2021/10/10 00:54:19;;;;;;;40.03;34.00;;;;;;;;;;693450;28;813;-63
2021/10/10 00:54:40;;;;;;;39.90;34.97;;;;;;;;;;693646;28;1033;-63
2021/10/10 00:55:01;;;;;;;41.17;34.93;;;;;;;;;;693773;28;1111;-62
2021/10/10 00:55:21;;;;;;;42.10;35.22;;;;;;;;;;693722;28;943;-62
2021/10/10 00:55:42;;;;;;;41.40;34.72;;;;;;;;;;693584;28;802;-63
2021/10/10 00:56:02;;;;;;;42.40;35.28;;;;;;;;;;693737;28;939;-63
2021/10/10 00:56:23;;;;;;;40.60;34.47;;;;;;;;;;693389;28;904;-63
2021/10/10 00:56:43;;;;;;;40.80;34.90;;;;;;;;;;693440;28;910;-62
2021/10/10 00:57:05;;;;;;;41.47;35.00;;;;;;;;;;693540;28;947;-62
2021/10/10 00:57:25;;;;;;;40.45;34.60;;;;;;;;;;693411;28;876;-63
2021/10/10 00:57:47;;;;;;;40.75;34.42;;;;;;;;;;693401;28;873;-63
2021/10/10 00:58:09;;;;;;;40.72;34.25;;;;;;;;;;693550;28;828;-63
2021/10/10 00:58:30;;;;;;;39.40;33.70;;;;;;;;;;693575;28;846;-63
2021/10/10 00:58:50;;;;;;;39.28;33.80;;;;;;;;;;693725;28;932;-62
2021/10/10 00:59:12;;;;;;;40.53;34.30;;;;;;;;;;693669;28;900;-62
2021/10/10 00:59:35;;;;;;;39.45;33.55;;;;;;;;;;693641;28;1330;-62
2021/10/10 00:59:57;;;;;;;38.75;32.78;;;;;;;;;;693683;28;949;-62
2021/10/10 01:00:17;;;;;;;40.42;33.15;;;;;;;;;;693493;28;1026;-62
2021/10/10 01:00:38;;;;;;;38.97;33.00;;;;;;;;;;693697;28;801;-62
2021/10/10 01:00:58;;;;;;;40.90;33.08;;;;;;;;;;693651;28;808;-62
2021/10/10 01:01:19;;;;;;;40.13;33.93;;;;;;;;;;693604;28;1054;-63
2021/10/10 01:01:40;;;;;;;40.50;33.60;;;;;;;;;;693740;28;936;-63
2021/10/10 01:02:01;;;;;;;40.92;33.30;;;;;;;;;;693536;28;859;-62
2021/10/10 01:02:21;;;;;;;39.88;34.17;;;;;;;;;;693547;28;840;-63
2021/10/10 01:02:44;;;;;;;39.30;33.73;;;;;;;;;;693509;28;877;-62
2021/10/10 01:03:07;;;;;;;38.42;33.63;;;;;;;;;;693664;28;942;-62
2021/10/10 01:03:28;;;;;;;38.22;33.55;;;;;;;;;;693645;28;891;-62
2021/10/10 01:03:48;;;;;;;39.70;33.80;;;;;;;;;;693618;28;986;-63
2021/10/10 01:04:08;;;;;;;39.83;33.77;;;;;;;;;;693602;28;975;-63
2021/10/10 01:04:28;;;;;;;39.97;34.17;;;;;;;;;;693656;28;784;-63
2021/10/10 01:04:51;;;;;;;39.65;33.92;;;;;;;;;;693564;28;954;-63
2021/10/10 01:05:12;;;;;;;38.08;33.75;;;;;;;;;;693723;28;855;-63
2021/10/10 01:05:32;;;;;;;39.92;34.17;;;;;;;;;;693630;28;875;-63
2021/10/10 01:05:52;;;;;;;39.95;33.38;;;;;;;;;;693753;28;884;-62
2021/10/10 01:06:13;;;;;;;39.37;33.00;;;;;;;;;;693541;28;934;-63
2021/10/10 01:06:33;;;;;;;39.25;33.15;;;;;;;;;;693489;28;959;-63
2021/10/10 01:06:53;;;;;;;39.47;33.60;;;;;;;;;;693753;28;871;-63
2021/10/10 01:07:14;;;;;;;40.40;33.73;;;;;;;;;;693671;28;828;-63
2021/10/10 01:07:34;;;;;;;40.30;33.10;;;;;;;;;;693587;28;797;-63
2021/10/10 01:07:54;;;;;;;38.77;33.13;;;;;;;;;;693715;28;1026;-63
2021/10/10 01:08:15;;;;;;;37.30;32.77;;;;;;;;;;693460;28;948;-63
2021/10/10 01:08:35;;;;;;;36.17;31.85;;;;;;;;;;693558;28;1023;-63
2021/10/10 01:08:55;;;;;;;36.23;32.33;;;;;;;;;;693726;28;824;-63
2021/10/10 01:09:15;;;;;;;36.57;32.13;;;;;;;;;;693613;28;937;-62
2021/10/10 01:09:36;;;;;;;36.37;32.27;;;;;;;;;;693610;28;1340;-63
2021/10/10 01:09:57;;;;;;;35.20;31.40;;;;;;;;;;693757;28;777;-63
2021/10/10 01:10:18;;;;;;;35.28;31.48;;;;;;;;;;693398;28;1105;-63
2021/10/10 01:10:38;;;;;;;35.30;31.48;;;;;;;;;;693643;28;891;-63
2021/10/10 01:11:01;;;;;;;35.20;31.47;;;;;;;;;;693552;28;1122;-62
2021/10/10 01:11:21;;;;;;;36.72;31.48;;;;;;;;;;693679;28;861;-62
2021/10/10 01:11:42;;;;;;;34.85;31.05;;;;;;;;;;693592;28;1928;-62
2021/10/10 01:12:03;;;;;;;35.13;31.33;;;;;;;;;;693625;28;1014;-62
2021/10/10 01:12:23;;;;;;;35.33;31.52;;;;;;;;;;693521;28;895;-62
2021/10/10 01:12:44;;;;;;;36.47;31.70;;;;;;;;;;693307;28;844;-62
2021/10/10 01:13:04;;;;;;;35.40;31.53;;;;;;;;;;693413;28;974;-63
2021/10/10 01:13:24;;;;;;;35.38;31.25;;;;;;;;;;693681;28;947;-63
2021/10/10 01:13:44;;;;;;;34.67;30.87;;;;;;;;;;693552;28;899;-62
2021/10/10 01:14:08;;;;;;;34.73;31.03;;;;;;;;;;693711;28;816;-62
2021/10/10 01:14:28;;;;;;;34.63;30.98;;;;;;;;;;693408;28;1354;-62
2021/10/10 01:14:48;;;;;;;35.07;31.37;;;;;;;;;;693505;28;867;-62
2021/10/10 01:15:09;;;;;;;35.00;31.30;;;;;;;;;;693625;28;886;-62
2021/10/10 01:15:29;;;;;;;34.33;30.70;;;;;;;;;;693688;28;875;-62
2021/10/10 01:15:50;;;;;;;35.00;31.30;;;;;;;;;;693627;28;1090;-62
2021/10/10 01:16:11;;;;;;;34.13;30.52;;;;;;;;;;693663;28;903;-62
2021/10/10 01:16:31;;;;;;;33.75;30.13;;;;;;;;;;693373;28;1515;-62
2021/10/10 01:16:51;;;;;;;33.17;29.67;;;;;;;;;;693653;28;868;-62
2021/10/10 01:17:14;;;;;;;33.40;29.92;;;;;;;;;;693653;28;1018;-62
2021/10/10 01:17:35;;;;;;;33.80;30.20;;;;;;;;;;693622;28;875;-62
2021/10/10 01:17:55;;;;;;;33.00;29.57;;;;;;;;;;693591;28;970;-61
2021/10/10 01:18:22;;;;;;;31.87;28.53;;;;;;;;;;693584;28;812;-63
2021/10/10 01:18:42;;;;;;;33.05;29.55;;;;;;;;;;693252;28;2177;-62
2021/10/10 01:19:03;;;;;;;32.73;29.30;;;;;;;;;;693462;28;793;-62
2021/10/10 01:19:26;;;;;;;32.97;29.27;;;;;;;;;;693247;28;1295;-62
2021/10/10 01:19:47;;;;;;;32.42;29.02;;;;;;;;;;693496;28;879;-62
2021/10/10 01:20:08;;;;;;;32.40;29.00;;;;;;;;;;693297;28;828;-62
2021/10/10 01:20:29;;;;;;;32.72;29.30;;;;;;;;;;693409;28;1098;-62
2021/10/10 01:20:50;;;;;;;33.03;29.63;;;;;;;;;;693157;28;1324;-62
2021/10/10 01:21:13;;;;;;;32.67;29.17;;;;;;;;;;693571;28;869;-63
2021/10/10 01:21:36;;;;;;;32.35;28.95;;;;;;;;;;693656;28;947;-62
2021/10/10 01:21:57;;;;;;;33.15;29.65;;;;;;;;;;693496;28;884;-63
2021/10/10 01:22:21;;;;;;;32.97;29.45;;;;;;;;;;693591;28;1622;-64
2021/10/10 01:22:41;;;;;;;32.42;29.02;;;;;;;;;;693306;28;1054;-62
2021/10/10 01:23:01;;;;;;;33.00;29.53;;;;;;;;;;693382;28;891;-62
2021/10/10 01:23:22;;;;;;;33.50;29.92;;;;;;;;;;693641;28;887;-62
2021/10/10 01:23:45;;;;;;;33.97;30.27;;;;;;;;;;693495;28;943;-62
2021/10/10 01:24:05;;;;;;;33.53;29.95;;;;;;;;;;693636;28;939;-62
2021/10/10 01:24:26;;;;;;;34.10;30.50;;;;;;;;;;693459;28;994;-61
2021/10/10 01:24:46;;;;;;;33.83;30.23;;;;;;;;;;693506;28;851;-62
2021/10/10 01:25:06;;;;;;;34.33;29.77;;;;;;;;;;693541;28;931;-62
2021/10/10 01:25:27;;;;;;;35.00;30.00;;;;;;;;;;693567;28;892;-63
2021/10/10 01:25:47;;;;;;;33.30;29.67;;;;;;;;;;693610;28;836;-63
2021/10/10 01:26:07;;;;;;;33.93;30.43;;;;;;;;;;693691;28;851;-63
2021/10/10 01:26:28;;;;;;;34.40;30.70;;;;;;;;;;693475;28;908;-63
2021/10/10 01:26:50;;;;;;;34.92;30.25;;;;;;;;;;693639;28;860;-63
2021/10/10 01:27:12;;;;;;;34.13;30.40;;;;;;;;;;693599;28;970;-63
2021/10/10 01:27:32;;;;;;;33.55;29.95;;;;;;;;;;693539;28;892;-63
2021/10/10 01:27:52;;;;;;;34.80;30.37;;;;;;;;;;693641;28;979;-63
2021/10/10 01:28:13;;;;;;;35.53;31.43;;;;;;;;;;693545;28;894;-63
2021/10/10 01:28:36;;;;;;;34.70;30.77;;;;;;;;;;693549;28;871;-63
2021/10/10 01:28:56;;;;;;;34.83;30.67;;;;;;;;;;693514;28;883;-63
2021/10/10 01:29:16;;;;;;;34.22;30.63;;;;;;;;;;693338;28;1268;-63
2021/10/10 01:29:37;;;;;;;35.27;31.40;;;;;;;;;;693592;28;868;-63
2021/10/10 01:29:57;;;;;;;34.80;31.00;;;;;;;;;;693642;28;918;-63
2021/10/10 01:30:17;;;;;;;34.23;30.63;;;;;;;;;;693546;28;860;-63
2021/10/10 01:30:37;;;;;;;34.10;30.40;;;;;;;;;;693555;28;788;-63
2021/10/10 01:30:57;;;;;;;34.30;30.60;;;;;;;;;;693528;28;966;-63
2021/10/10 01:31:17;;;;;;;33.70;30.10;;;;;;;;;;693603;28;887;-63
2021/10/10 01:31:37;;;;;;;34.70;30.53;;;;;;;;;;693562;28;1902;-63
2021/10/10 01:31:58;;;;;;;34.57;30.87;;;;;;;;;;693576;28;995;-63
2021/10/10 01:32:18;;;;;;;34.72;30.80;;;;;;;;;;693648;28;820;-63
2021/10/10 01:32:38;;;;;;;35.03;30.17;;;;;;;;;;693546;28;910;-63
2021/10/10 01:32:58;;;;;;;34.63;29.97;;;;;;;;;;693259;28;899;-63
2021/10/10 01:33:19;;;;;;;34.70;29.98;;;;;;;;;;693625;28;1026;-63
2021/10/10 01:33:39;;;;;;;34.77;30.60;;;;;;;;;;693584;28;844;-63
2021/10/10 01:33:59;;;;;;;35.10;31.33;;;;;;;;;;693613;28;1370;-62
2021/10/10 01:34:20;;;;;;;35.08;31.30;;;;;;;;;;693635;28;855;-62
2021/10/10 01:34:43;;;;;;;34.47;30.63;;;;;;;;;;693462;28;903;-62
2021/10/10 01:35:06;;;;;;;34.30;30.63;;;;;;;;;;693629;28;922;-63
2021/10/10 01:35:27;;;;;;;34.75;31.05;;;;;;;;;;693529;28;955;-62
2021/10/10 01:35:47;;;;;;;35.03;30.73;;;;;;;;;;693523;28;991;-62
2021/10/10 01:36:10;;;;;;;34.53;30.67;;;;;;;;;;693702;28;801;-62
2021/10/10 01:36:33;;;;;;;34.40;30.00;;;;;;;;;;693452;28;793;-62
2021/10/10 01:36:54;;;;;;;34.15;29.85;;;;;;;;;;693576;28;1033;-62
2021/10/10 01:37:15;;;;;;;35.27;30.53;;;;;;;;;;693531;28;826;-62
2021/10/10 01:37:35;;;;;;;35.00;31.02;;;;;;;;;;693393;28;880;-62
2021/10/10 01:37:55;;;;;;;33.60;30.00;;;;;;;;;;693682;28;812;-62
2021/10/10 01:38:16;;;;;;;34.37;30.67;;;;;;;;;;693551;28;923;-62
2021/10/10 01:38:36;;;;;;;34.42;30.08;;;;;;;;;;693554;28;885;-62
2021/10/10 01:38:56;;;;;;;34.83;29.63;;;;;;;;;;693647;28;939;-62
2021/10/10 01:39:16;;;;;;;33.53;29.43;;;;;;;;;;693342;28;1275;-62
2021/10/10 01:39:37;;;;;;;33.50;29.88;;;;;;;;;;693503;28;1015;-62
2021/10/10 01:39:57;;;;;;;33.33;29.50;;;;;;;;;;693626;28;896;-62
2021/10/10 01:40:26;;;;;;;33.37;29.77;;;;;;;;;;693560;28;849;-62
2021/10/10 01:40:46;;;;;;;33.63;30.02;;;;;;;;;;693509;28;1059;-62
2021/10/10 01:41:07;;;;;;;33.17;29.63;;;;;;;;;;693480;28;884;-62
2021/10/10 01:41:27;;;;;;;34.40;30.15;;;;;;;;;;693570;28;860;-62
2021/10/10 01:41:47;;;;;;;34.20;29.93;;;;;;;;;;693601;28;908;-62
2021/10/10 01:42:08;;;;;;;33.60;29.87;;;;;;;;;;693568;28;844;-62
2021/10/10 01:42:28;;;;;;;34.03;30.13;;;;;;;;;;693486;28;906;-62
2021/10/10 01:42:48;;;;;;;33.30;29.70;;;;;;;;;;692968;28;849;-62
2021/10/10 01:43:08;;;;;;;33.77;30.17;;;;;;;;;;693616;28;809;-64
2021/10/10 01:43:28;;;;;;;34.27;30.30;;;;;;;;;;693674;28;920;-63
2021/10/10 01:43:48;;;;;;;34.60;30.33;;;;;;;;;;693429;28;841;-63
2021/10/10 01:44:13;;;;;;;33.83;29.30;;;;;;;;;;693687;28;793;-63
2021/10/10 01:44:33;;;;;;;33.22;29.23;;;;;;;;;;693129;28;1328;-63
2021/10/10 01:44:53;;;;;;;33.60;29.40;;;;;;;;;;693539;28;887;-63
2021/10/10 01:45:15;;;;;;;33.20;29.60;;;;;;;;;;693621;28;904;-63
2021/10/10 01:45:35;;;;;;;34.70;29.92;;;;;;;;;;693469;28;884;-63
2021/10/10 01:45:55;;;;;;;34.50;29.57;;;;;;;;;;693531;28;951;-62
2021/10/10 01:46:15;;;;;;;33.17;29.57;;;;;;;;;;693699;28;849;-63
2021/10/10 01:46:35;;;;;;;33.60;29.55;;;;;;;;;;693464;28;822;-62
2021/10/10 01:46:56;;;;;;;33.93;30.13;;;;;;;;;;693314;28;1461;-62
2021/10/10 01:47:16;;;;;;;33.95;29.92;;;;;;;;;;693641;28;887;-63
2021/10/10 01:47:36;;;;;;;33.67;29.87;;;;;;;;;;693647;28;789;-63
2021/10/10 01:47:57;;;;;;;33.57;29.97;;;;;;;;;;693528;28;1080;-63
2021/10/10 01:48:20;;;;;;;32.93;29.37;;;;;;;;;;693449;28;1011;-63
2021/10/10 01:48:43;;;;;;;32.95;29.42;;;;;;;;;;693432;28;1395;-62
2021/10/10 01:49:03;;;;;;;32.55;29.05;;;;;;;;;;693589;28;992;-62
2021/10/10 01:49:23;;;;;;;32.65;29.15;;;;;;;;;;693482;28;1434;-62
2021/10/10 01:49:43;;;;;;;32.97;29.33;;;;;;;;;;693680;28;1026;-62
2021/10/10 01:50:04;;;;;;;33.13;29.60;;;;;;;;;;693424;28;947;-62
2021/10/10 01:50:24;;;;;;;34.17;30.58;;;;;;;;;;693561;28;991;-62
2021/10/10 01:50:44;;;;;;;33.63;30.03;;;;;;;;;;693599;28;853;-63
2021/10/10 01:51:04;;;;;;;34.67;30.10;;;;;;;;;;693454;28;1022;-63
2021/10/10 01:51:24;;;;;;;33.63;29.77;;;;;;;;;;693557;28;1157;-62
2021/10/10 01:51:44;;;;;;;33.42;29.88;;;;;;;;;;693531;28;1965;-62
2021/10/10 01:52:05;;;;;;;34.60;30.80;;;;;;;;;;693431;28;927;-63
2021/10/10 01:52:26;;;;;;;33.50;29.53;;;;;;;;;;693598;28;983;-63
2021/10/10 01:52:46;;;;;;;33.20;29.70;;;;;;;;;;692998;28;955;-63
2021/10/10 01:53:06;;;;;;;33.47;29.98;;;;;;;;;;693496;28;924;-62
2021/10/10 01:53:26;;;;;;;34.03;30.30;;;;;;;;;;693653;28;959;-63
2021/10/10 01:53:47;;;;;;;33.03;29.43;;;;;;;;;;693549;28;904;-63
2021/10/10 01:54:07;;;;;;;33.33;29.73;;;;;;;;;;693567;28;804;-63
2021/10/10 01:54:27;;;;;;;33.23;29.67;;;;;;;;;;693458;28;1058;-62
2021/10/10 01:54:47;;;;;;;34.30;30.48;;;;;;;;;;693449;28;868;-63
2021/10/10 01:55:07;;;;;;;34.10;30.40;;;;;;;;;;693508;28;995;-63
2021/10/10 01:55:28;;;;;;;33.13;29.63;;;;;;;;;;693567;28;805;-63
2021/10/10 01:55:53;;;;;;;33.33;29.73;;;;;;;;;;693607;28;1264;-63
2021/10/10 01:56:15;;;;;;;32.78;29.27;;;;;;;;;;693486;28;1002;-63
2021/10/10 01:56:35;;;;;;;33.58;29.98;;;;;;;;;;693462;28;1035;-63
2021/10/10 01:56:55;;;;;;;33.20;29.63;;;;;;;;;;693494;28;1002;-62
2021/10/10 01:57:15;;;;;;;33.77;30.17;;;;;;;;;;693584;28;828;-62
2021/10/10 01:57:36;;;;;;;33.72;30.13;;;;;;;;;;693521;28;971;-62
2021/10/10 01:57:59;;;;;;;32.67;29.17;;;;;;;;;;693537;28;987;-62
2021/10/10 01:58:19;;;;;;;32.70;29.20;;;;;;;;;;693431;28;895;-62
2021/10/10 01:58:39;;;;;;;33.20;29.67;;;;;;;;;;693523;28;776;-62
2021/10/10 01:58:59;;;;;;;33.43;29.77;;;;;;;;;;693540;28;986;-62
2021/10/10 01:59:19;;;;;;;33.95;30.02;;;;;;;;;;693315;28;1304;-62
2021/10/10 01:59:39;;;;;;;32.30;28.80;;;;;;;;;;693648;28;959;-62
2021/10/10 01:59:59;;;;;;;33.07;29.57;;;;;;;;;;693520;28;777;-62
2021/10/10 02:00:20;;;;;;;33.23;29.63;;;;;;;;;;693598;28;971;-62
2021/10/10 02:00:46;;;;;;;33.73;30.03;;;;;;;;;;693450;28;1353;-62
2021/10/10 02:01:06;;;;;;;33.75;29.98;;;;;;;;;;693443;28;991;-62
2021/10/10 02:01:26;;;;;;;33.07;29.47;;;;;;;;;;693468;28;936;-62
2021/10/10 02:01:46;;;;;;;33.20;29.60;;;;;;;;;;693624;28;841;-62
2021/10/10 02:02:06;;;;;;;33.27;29.53;;;;;;;;;;693476;28;851;-62
2021/10/10 02:02:27;;;;;;;33.80;30.20;;;;;;;;;;693507;28;932;-63
2021/10/10 02:02:47;;;;;;;33.15;29.55;;;;;;;;;;692959;28;868;-62
2021/10/10 02:03:07;;;;;;;33.13;29.53;;;;;;;;;;693621;28;850;-62
2021/10/10 02:03:27;;;;;;;33.17;29.57;;;;;;;;;;693477;28;984;-62
2021/10/10 02:03:47;;;;;;;33.53;29.93;;;;;;;;;;693506;28;821;-62
2021/10/10 02:04:07;;;;;;;34.17;30.37;;;;;;;;;;693585;28;792;-63
2021/10/10 02:04:27;;;;;;;33.08;29.58;;;;;;;;;;693484;28;998;-62
2021/10/10 02:04:48;;;;;;;33.07;29.47;;;;;;;;;;693381;28;869;-62
2021/10/10 02:05:09;;;;;;;33.20;29.60;;;;;;;;;;693182;28;1012;-62
2021/10/10 02:05:29;;;;;;;34.03;30.13;;;;;;;;;;693394;28;998;-62
2021/10/10 02:05:50;;;;;;;32.50;29.00;;;;;;;;;;693636;28;923;-62